UVAGARNER FIELD
METARs for nearby airports:
N 0 941' KUVA 201955Z 34004KT 10SM SCT026 BKN030 OVC045 23/18 A3015
E 30 930' KHDO 201951Z 04012KT 10SM SCT028 25/17 A3014
S 41 598' KCZT 201955Z 04003KT 10SM OVC021 22/18 A3013
E 47 773' KCVB 201955Z 04008KT 10SM SCT028 SCT080 24/15 A3015
NW 49 2372' KECU 201955Z 02008KT 10SM FEW013 OVC060 17/15 A3025
SE 53 474' KCOT 201953Z 35007KT 10SM BKN023 OVC039 23/19 A3012
W 54 1081' KDLF 200256Z 30007KT 10SM OVC023 17/16 A3016
NE 57 1616' KERV 201955Z 36007KT 10SM OVC017 18/15 A3019
E 61 690' KSKF 201956Z 02012KT 10SM BKN025 22/17 A3011
W 62 1002' KDRT 201953Z 31008KT 10SM FEW019 OVC033 19/18 A3017
E 66 430' KPEZ 201955Z 04008KT 10SM OVC027 24/17 A3012
E 67 577' KSSF 201953Z 02011KT 10SM FEW023 BKN055 BKN080 24/15 A3011
E 69 809' KSAT 201951Z 02010KT 10SM OVC021 21/16 A3014
N 78 1753' KJCT 172051Z 02008KT 4SM -RA BR OVC007 09/08 A3031
E 79 762' KRND 201956Z 35010KT 10SM OVC017 20/16 A3014
E 93 658' KBAZ 201951Z 01012KT 10SM OVC016 19/15 A3013
NW 95 2139' KSOA 201955Z 35009KT 10SM FEW041 SCT046 BKN055 19/14 A3028
TAFs for nearby airports:
W 54 1081' KDLF TAF
  AMD KDLF 200001Z 2000/2024 31006KT 9999 BKN010 OVC015 QNH3011INS
  BECMG 2001/2002 31006KT 9999 BKN007 OVC015 QNH3012INS
  BECMG 2012/2013 35009KT 8000 -SHRA BKN010 OVC030 QNH3014INS TX18/2000Z TN14/2012Z LAST NO
  AMDS AFT 2000 NEXT 2118
E 61 690' KSKF TAF KSKF 201800Z 2018/2124 03010G15KT 9999 BKN020 BKN040 QNH3007INS
  BECMG 2021/2022 03014G20KT 9999 SCT025 BKN080 QNH3008INS WND 04012KT AFT 2108
  BECMG 2113/2114 04014G20KT 9999 SCT100 BKN180 QNH3021INS
  BECMG 2119/2120 04009KT 9999 BKN090 BKN140 QNH3025INS TX25/2020Z TN14/2111Z
W 62 1002' KDRT TAF
  AMD KDRT 201805Z 2018/2118 31010KT P6SM VCSH SCT018 OVC035
  TEMPO 2018/2022 BKN018
  FM202200 33010KT P6SM SCT025 OVC040
  FM210700 34010KT P6SM SCT025 BKN120
E 67 577' KSSF KSSF 201739Z 2018/2118 03011KT P6SM BKN020 BKN050
  TEMPO 2019/2022 SCT020
  FM202200 02011KT P6SM BKN025 BKN070
  FM210700 03011KT P6SM SCT025 BKN100
  FM211300 03012KT P6SM FEW025 BKN150
E 69 809' KSAT KSAT 201739Z 2018/2124 02011KT P6SM BKN018 OVC080
  TEMPO 2019/2022 SCT018
  FM202200 02011KT P6SM BKN020 BKN070
  FM210700 03011KT P6SM SCT025 BKN100
  FM211300 02012KT P6SM FEW025 BKN150
N 78 1753' KJCT KJCT 201733Z 2018/2118 01004KT P6SM VCSH BKN025
  FM202100 01011KT P6SM VCSH SCT050 BKN150
  FM210300 VRB06KT P6SM OVC150
  FM211500 08011KT P6SM OVC250
  AMD NOT SKED
E 79 762' KRND TAF KRND 191700Z 1917/2023 02009KT 9999 VCSH OVC004 QNH3010INS
  BECMG 1919/1920 02009KT 4800 -SHRA BR OVC008 QNH3007INS
  BECMG 2000/2001 02009KT 8000 -SHRA OVC006 QNH3005INS TX18/1920Z TN15/2011Z LAST NO
  AMDS AFT 2000 NEXT 2209
NW 95 2139' KSOA KSOA 201733Z 2018/2118 03009KT P6SM VCSH SCT060 BKN150
  FM210300 VRB06KT P6SM OVC150
  FM211500 05011KT P6SM OVC250
Area forecast:
000
FAUS44 KKCI 101845
FA4W  
DFWC FA 101845
SYNOPSIS AND VFR CLDS/WX
SYNOPSIS VALID UNTIL 111300
CLDS/WX VALID UNTIL 110700...OTLK VALID 110700-111300
OK TX AR TN LA MS AL
.
SEE AIRMET SIERRA FOR IFR CONDS AND MTN OBSCN.
TS IMPLY SEV OR GTR TURB SEV ICE LLWS AND IFR CONDS.
NON MSL HGTS DENOTED BY AGL OR CIG.
.
SYNOPSIS...LOW PRES OVR SERN MO WITH CDFNT THRU ERN AR-NERN
LA-NWRN GLFMEX. BY 13Z LOW OVR SERN IN WITH CDFNT THRU E MIDDLE
TN-NERN AL-SERN MA-SERN LA-NWRN GLFMEX.
.
OK
PNHDL-W...SKC. TIL 22Z OCNL SCT060 WND N G25KT. OTLK...VFR.
CNTRL-SE....SCT-BKN040 TOP 100. 22Z SCT040. 02Z SKC. OTLK...VFR.
NERN...BKN030 TOP 060. 22Z SCT-BKN040. 01Z SCT040. OTLK...XTRM
NERN MVFR BR ELSW VFR.
.
NWRN TX
PNHDL...SKC. OTLK...VFR.
S PLAINS...SCT150. S PTN OCNL SCT070. 22Z N PTN SKC. 02Z S PTN
SKC. OTLK...VFR.
.
SWRN TX
MTNS WWD...
N PTN.. SCT120 SCT CI. 01Z SKC. OTLK...VFR.
S PTN..BKN090 TOP 120. 23Z SCT080-100. OTLK...VFR.
RMNDR...
W PTN..SCT-BKN080 TOP 140. 23Z SCT080. OTLK...VFR.
E PTN..BKN050-070 TOP 150. ISOL -SHRA. 02Z N PTN SCT080. S PTN
BKN060 TOP 160. OTLK...VFR.
.
N CNTRL TX
SCT060-080 SCT CI. 23Z SCT120-140. OTLK...VFR.
.
NERN TX
SCT025 SCT-BKN060 TOP 120. 23Z SCT120-140. OTLK...VFR.
.
SERN TX
CSTL SXNS...BKN025 TOP 160. CSTLN ISOL -TSRA. CB TOP FL400.
23Z SCT025 SCT-BKN060 TOP 120. 03Z SCT040. OTLK...VFR.
INLAND...SCT040 SCT140 SCT-BKN CI. 01Z SCT150 SCT CI. OTLK...VFR.
.
S CNTRL TX
CSTL PLAINS-LWR RIOGD...
VCNTY CSTLN..BKN020 TOP FL180. WDLY SCT -SHRA/ISOL -TSRA. CB TOP
FL450. BECMG 2123 BKN020 TOP 140.  05Z BKN040. OTLK...VFR.
INLAND..BKN035 TOP 120. BECMG 0305 BKN040 TOP 100. OTLK...VFR.
HILL COUNTRY...BKN070 TOP FL200. 23Z SCT070 BKN120. 03Z SCT070
SCT120. OTLK...VFR.
RMNDR...
N PTN..BKN040 TOP 120. 23Z SCT-BKN050 TOP 100. 03Z SCT060 SCT CI.
OTLK...VFR.
S PTN..BKN030 TOP 160. TIL 21Z WDLY SCT -SHRA. OTLK...MVFR CIG.
.
AR
NW...OVC030 TOP FL180. BECMG 0204 SCT030. OTLK...XTRM N MVFR CIG
09Z IFR CIG BR ELSW VFR.
SW...SCT030 SCT140. 00Z SCT100 SCT CI. OTLK...VFR.
E HLF...BKN040 TOP 160. ISOL -TSRA. CB TOP FL420. 01Z SCT030
SCT120. OTLK...VFR 09Z MVFR BR.
.
LA
N-CNTRL...SCT025 SCT-BKN050 TOP 100. 21Z E PTN TOP 140. ISOL
-TSRA. CB TOP FL450. 02Z SCT CI. OTLK...VFR.
S...BKN-SCT025 BKN050 TOP FL210. WDLY SCT -SHRA/ISOL -TSRA. CB
TOP FL450. BECMG 0204 SCT025 SCT140 SCT-BKN CI. OTLK...W PTN VFR
10Z MVFR CIG BR E PTN MVFR BR 10Z IFR CIG BR.
.
TN
W...BKN040 TOP 160. ISOL -TSRA. CB TOP FL420. BECMG 0103
BKN-SCT025 TOP 120. OTLK...MVFR CIG BR.
MIDDLE...OVC030 TOP FL200. WDLY SCT -SHRA/TSRA. CB TOP FL450. 00Z
BKN040 TOP 140. WDLY SCT -SHRA/ISOL -TSRA. CB TOP FL420.
05Z OCNL VIS 3SM BR. OTLK...MVFR CIG BR 09Z IFR CIG BR.
E...SCT025 BKN040 TOP FL250. WDLY SCT -SHRA/TSRA. CB TOP FL450.
BECMG 0305 BKN040. WDLY SCT -SHRA. OCNL VIS 3SM BR. OTLK...MVFR
CIG SHRA BR 09Z IFR CIG BR.
.
MS AL
N-CNTRL PTN...
W MS..BKN-SCT040 TOP 140. ISOL -SHRA/TSRA. CB TOP FL420.
BECMG 0204 BKN035 TOP 100. OTLK...MVFR CIG BR.
ELSW..BKN-SCT025 BKN040 TOP FL240. WDLY SCT -SHRA/TSRA. CB TOP
FL450. BECMG 0002 BKN040 TOP 140. ISOL -SHRA/TSRA.
06Z BKN010-020 TOP 060. OCNL VIS 3SM BR. OTLK...MVFR CIG BR
09Z IFR CIG BR.
S PTN...BKN025 TOP FL220. WDLY SCT -SHRA. ISOL -TSRA. CB TOP
FL450. BECMG 0305 SCT020 SCT100. OCNL VIS 3SM BR. OTLK...MVFR BR
09Z IFR CIG BR.
.
THE AREA FORECAST WILL TERMINATE AT 2359Z ON 10 OCTOBER 2017. IN
PLACE OF THE AREA FORECAST PLEASE SEE THE GRAPHICAL FORECAST AT
WWW.AVIATIONWEATHER.GOV/GFA. GRAPHICAL AND TEXT AIRMETS WILL
CONTINUE AS REGULARLY SCHEDULED.
....

Shortcut to this page: http://wxbay.com.

Data may contain errors.